createdAt,value
2019-06-08T00:00:27.174Z,72.19
2019-06-08T00:01:27.213Z,72.00
2019-06-08T00:02:27.249Z,71.90
2019-06-08T00:03:27.290Z,72.28
2019-06-08T00:04:27.323Z,72.86
2019-06-08T00:05:27.362Z,72.48
2019-06-08T00:06:27.401Z,72.48
2019-06-08T00:07:27.439Z,72.86
2019-06-08T00:08:27.476Z,73.06
2019-06-08T00:09:27.512Z,72.58
2019-06-08T00:10:27.555Z,73.06
2019-06-08T00:11:27.584Z,72.77
2019-06-08T00:12:27.624Z,73.11
2019-06-08T00:13:27.661Z,73.11
2019-06-08T00:14:27.701Z,73.31
2019-06-08T00:15:27.737Z,73.21
2019-06-08T00:16:27.773Z,73.69
2019-06-08T00:17:38.034Z,74.18
2019-06-08T00:18:27.848Z,74.08
2019-06-08T00:19:27.884Z,73.89
2019-06-08T00:20:27.925Z,74.08
2019-06-08T00:21:27.961Z,73.99
2019-06-08T00:22:28.003Z,74.57
2019-06-08T00:23:28.037Z,74.47
2019-06-08T00:24:28.073Z,74.85
2019-06-08T00:25:28.112Z,75.34
2019-06-08T00:26:28.150Z,74.57
2019-06-08T00:27:28.187Z,74.37
2019-06-08T00:28:28.222Z,74.66
2019-06-08T00:29:28.260Z,74.27
2019-06-08T00:30:28.826Z,74.47
2019-06-08T00:31:28.334Z,75.43
2019-06-08T00:32:28.372Z,75.14
2019-06-08T00:33:28.409Z,75.14
2019-06-08T00:34:28.452Z,75.34
2019-06-08T00:35:28.483Z,74.95
2019-06-08T00:36:28.521Z,74.66
2019-06-08T00:37:28.570Z,75.34
2019-06-08T00:38:28.596Z,76.40
2019-06-08T00:39:28.634Z,76.20
2019-06-08T00:40:28.671Z,76.17
2019-06-08T00:41:28.718Z,75.82
2019-06-08T00:42:28.749Z,76.40
2019-06-08T00:43:28.782Z,75.82
2019-06-08T00:44:28.820Z,75.82
2019-06-08T00:45:28.858Z,75.78
2019-06-08T00:46:28.896Z,76.55
2019-06-08T00:47:46.653Z,76.65
2019-06-08T00:48:28.969Z,76.65
2019-06-08T00:49:29.139Z,76.65
2019-06-08T00:50:29.449Z,77.33
2019-06-08T00:51:29.790Z,77.51
2019-06-08T00:52:29.410Z,76.84
2019-06-08T00:53:29.652Z,77.23
2019-06-08T00:54:29.777Z,77.13
2019-06-08T00:55:29.910Z,77.42
2019-06-08T00:56:30.013Z,77.51
2019-06-08T00:57:30.168Z,77.71
2019-06-08T00:58:30.464Z,77.13
2019-06-08T00:59:30.430Z,77.61
2019-06-08T01:00:30.746Z,77.71
2019-06-08T01:01:30.902Z,77.81
2019-06-08T01:02:29.492Z,77.90
2019-06-08T01:03:30.042Z,77.90
2019-06-08T01:04:29.564Z,78.09
2019-06-08T01:05:30.259Z,78.29
2019-06-08T01:06:29.883Z,78.48
2019-06-08T01:07:30.512Z,78.48
2019-06-08T01:08:29.712Z,78.77
2019-06-08T01:09:31.177Z,79.25
2019-06-08T01:10:29.788Z,79.44
2019-06-08T01:11:29.823Z,79.50
2019-06-08T01:12:29.861Z,78.92
2019-06-08T01:13:29.899Z,78.92
2019-06-08T01:14:29.961Z,79.50
2019-06-08T01:15:34.137Z,79.21
2019-06-08T01:16:30.008Z,79.69
2019-06-08T01:17:30.060Z,79.89
2019-06-08T01:18:30.086Z,79.11
2019-06-08T01:19:30.123Z,80.76
2019-06-08T01:20:30.182Z,80.85
2019-06-08T01:21:30.194Z,80.08
2019-06-08T01:22:30.232Z,80.37
2019-06-08T01:23:30.269Z,80.66
2019-06-08T01:24:30.306Z,80.56
2019-06-08T01:25:30.349Z,80.46
2019-06-08T01:26:30.414Z,80.76
2019-06-08T01:27:30.418Z,80.27
2019-06-08T01:28:30.453Z,81.04
2019-06-08T01:29:30.493Z,80.94
2019-06-08T01:30:30.529Z,80.76
2019-06-08T01:31:30.587Z,81.52
2019-06-08T01:32:30.657Z,81.81
2019-06-08T01:33:30.898Z,81.72
2019-06-08T01:34:31.000Z,81.43
2019-06-08T01:35:30.963Z,81.81
2019-06-08T01:36:31.209Z,81.68
2019-06-08T01:37:31.283Z,81.81
2019-06-08T01:38:31.197Z,82.16
2019-06-08T01:39:32.381Z,82.06
2019-06-08T01:40:31.528Z,82.26
2019-06-08T01:41:31.747Z,82.35
2019-06-08T01:42:31.890Z,82.64
2019-06-08T01:43:31.797Z,82.54
2019-06-08T01:44:32.053Z,82.45
2019-06-08T01:45:32.884Z,82.74
2019-06-08T01:46:32.394Z,82.83
2019-06-08T01:47:32.393Z,82.93
2019-06-08T01:48:32.289Z,82.26
2019-06-08T01:49:32.490Z,83.03
2019-06-08T01:50:32.668Z,82.83
2019-06-08T01:51:31.300Z,83.03
2019-06-08T01:52:31.335Z,82.83
2019-06-08T01:53:31.372Z,83.03
2019-06-08T01:54:31.620Z,81.68
2019-06-08T01:55:31.446Z,81.77
2019-06-08T01:56:31.482Z,81.58
2019-06-08T01:57:31.653Z,82.16
2019-06-08T01:58:31.556Z,81.73
2019-06-08T01:59:34.201Z,81.83
2019-06-08T02:00:37.915Z,81.63
2019-06-08T02:01:32.005Z,80.48
2019-06-08T02:02:32.042Z,80.10
2019-06-08T02:03:32.732Z,79.90
2019-06-08T02:04:33.022Z,79.71
2019-06-08T02:05:32.547Z,79.52
2019-06-08T02:06:32.476Z,79.52
2019-06-08T02:07:32.458Z,79.71
2019-06-08T02:08:32.656Z,79.28
2019-06-08T02:09:32.770Z,78.03
2019-06-08T02:10:32.910Z,77.84
2019-06-08T02:11:33.050Z,78.61
2019-06-08T02:12:33.110Z,78.61
2019-06-08T02:13:33.126Z,78.90
2019-06-08T02:14:33.265Z,78.81
2019-06-08T02:15:33.768Z,78.52
2019-06-08T02:16:33.352Z,78.61
2019-06-08T02:17:33.392Z,78.71
2019-06-08T02:18:39.837Z,79.10
2019-06-08T02:19:32.704Z,78.61
2019-06-08T02:20:32.993Z,78.61
2019-06-08T02:21:32.825Z,78.13
2019-06-08T02:22:33.061Z,78.13
2019-06-08T02:23:33.111Z,78.28
2019-06-08T02:24:33.392Z,78.38
2019-06-08T02:25:33.526Z,77.75
2019-06-08T02:26:35.181Z,77.51
2019-06-08T02:27:33.559Z,77.46
2019-06-08T02:28:33.610Z,77.42
2019-06-08T02:29:33.713Z,76.88
2019-06-08T02:30:34.071Z,76.88
2019-06-08T02:31:34.302Z,77.23
2019-06-08T02:32:34.604Z,77.42
2019-06-08T02:33:34.685Z,77.61
2019-06-08T02:34:35.130Z,77.71
2019-06-08T02:35:35.086Z,78.09
2019-06-08T02:36:34.967Z,77.90
2019-06-08T02:37:33.159Z,78.28
2019-06-08T02:38:34.586Z,78.00
2019-06-08T02:39:33.067Z,78.28
2019-06-08T02:40:34.727Z,78.19
2019-06-08T02:41:33.244Z,78.09
2019-06-08T02:42:35.291Z,78.77
2019-06-08T02:43:33.390Z,78.67
2019-06-08T02:44:34.453Z,78.83
2019-06-08T02:45:34.608Z,78.63
2019-06-08T02:46:35.424Z,79.50
2019-06-08T02:47:34.478Z,79.30
2019-06-08T02:48:33.742Z,79.21
2019-06-08T02:49:35.255Z,79.02
2019-06-08T02:50:35.077Z,79.40
2019-06-08T02:51:34.420Z,79.21
2019-06-08T02:52:34.338Z,79.30
2019-06-08T02:53:34.290Z,79.11
2019-06-08T02:54:35.324Z,79.11
2019-06-08T02:55:35.327Z,78.92
2019-06-08T02:56:34.245Z,78.83
2019-06-08T02:57:35.444Z,79.02
2019-06-08T02:58:36.063Z,78.73
2019-06-08T02:59:35.501Z,78.44
2019-06-08T03:00:35.430Z,79.02
2019-06-08T03:01:35.751Z,78.92
2019-06-08T03:02:34.542Z,78.73
2019-06-08T03:03:33.921Z,78.86
2019-06-08T03:04:34.591Z,78.19
2019-06-08T03:05:34.122Z,78.86
2019-06-08T03:06:34.734Z,78.77
2019-06-08T03:07:34.382Z,77.90
2019-06-08T03:08:34.433Z,77.61
2019-06-08T03:09:34.752Z,78.28
2019-06-08T03:10:35.091Z,78.19
2019-06-08T03:11:34.775Z,78.00
2019-06-08T03:12:35.200Z,78.19
2019-06-08T03:13:35.737Z,78.00
2019-06-08T03:14:35.512Z,77.71
2019-06-08T03:15:36.598Z,77.67
2019-06-08T03:16:35.889Z,77.61
2019-06-08T03:17:35.609Z,77.48
2019-06-08T03:18:35.857Z,77.19
2019-06-08T03:19:35.689Z,76.71
2019-06-08T03:20:35.762Z,77.00
2019-06-08T03:21:35.997Z,77.00
2019-06-08T03:22:36.522Z,76.90
2019-06-08T03:23:36.051Z,76.42
2019-06-08T03:24:36.477Z,76.42
2019-06-08T03:25:42.069Z,75.75
2019-06-08T03:26:36.518Z,76.04
2019-06-08T03:27:35.309Z,76.52
2019-06-08T03:28:35.648Z,76.04
2019-06-08T03:29:35.528Z,76.42
2019-06-08T03:30:38.889Z,76.23
2019-06-08T03:31:42.382Z,76.32
2019-06-08T03:32:42.060Z,76.32
2019-06-08T03:33:40.066Z,75.75
2019-06-08T03:34:39.748Z,75.94
2019-06-08T03:35:39.066Z,75.65
2019-06-08T03:36:39.175Z,75.46
2019-06-08T03:37:35.777Z,75.37
2019-06-08T03:38:35.827Z,75.56
2019-06-08T03:39:36.923Z,75.84
2019-06-08T03:40:35.901Z,76.14
2019-06-08T03:41:36.221Z,75.75
2019-06-08T03:42:35.326Z,75.94
2019-06-08T03:43:37.403Z,76.52
2019-06-08T03:44:36.169Z,76.14
2019-06-08T03:45:36.387Z,76.42
2019-06-08T03:46:36.365Z,76.90
2019-06-08T03:47:37.054Z,77.00
2019-06-08T03:48:37.112Z,77.09
2019-06-08T03:49:42.713Z,76.42
2019-06-08T03:50:37.458Z,76.71
2019-06-08T03:51:38.581Z,76.29
2019-06-08T03:52:37.651Z,76.39
2019-06-08T03:53:36.230Z,76.67
2019-06-08T03:54:36.606Z,76.48
2019-06-08T03:55:37.785Z,76.77
2019-06-08T03:56:35.893Z,76.96
2019-06-08T03:57:35.874Z,76.86
2019-06-08T03:58:37.077Z,77.63
2019-06-08T03:59:36.117Z,76.77
2019-06-08T04:00:36.408Z,77.63
2019-06-08T04:01:37.313Z,77.06
2019-06-08T04:02:37.784Z,76.77
2019-06-08T04:03:37.526Z,76.96
2019-06-08T04:04:37.812Z,77.34
2019-06-08T04:05:37.809Z,77.15
2019-06-08T04:06:37.690Z,77.83
2019-06-08T04:07:37.565Z,76.86
2019-06-08T04:08:37.828Z,76.77
2019-06-08T04:09:37.766Z,76.77
2019-06-08T04:10:37.637Z,77.34
2019-06-08T04:11:37.768Z,77.44
2019-06-08T04:12:37.773Z,77.63
2019-06-08T04:13:37.681Z,77.92
2019-06-08T04:14:37.850Z,77.44
2019-06-08T04:15:37.953Z,77.44
2019-06-08T04:16:38.249Z,76.77
2019-06-08T04:17:37.925Z,76.48
2019-06-08T04:18:38.054Z,77.06
2019-06-08T04:19:38.108Z,76.86
2019-06-08T04:20:38.017Z,76.39
2019-06-08T04:21:37.907Z,76.77
2019-06-08T04:22:37.958Z,76.77
2019-06-08T04:23:37.997Z,76.57
2019-06-08T04:24:38.060Z,76.48
2019-06-08T04:25:38.278Z,76.57
2019-06-08T04:26:38.482Z,76.86
2019-06-08T04:27:38.464Z,76.67
2019-06-08T04:28:38.329Z,76.29
2019-06-08T04:29:37.645Z,76.77
2019-06-08T04:30:38.505Z,76.09
2019-06-08T04:31:37.824Z,76.29
2019-06-08T04:32:38.510Z,76.48
2019-06-08T04:33:37.808Z,74.94
2019-06-08T04:34:38.625Z,74.94
2019-06-08T04:35:38.194Z,74.85
2019-06-08T04:36:38.815Z,75.00
2019-06-08T04:37:38.203Z,75.10
2019-06-08T04:38:38.902Z,75.10
2019-06-08T04:39:38.394Z,74.23
2019-06-08T04:40:39.327Z,74.33
2019-06-08T04:41:38.495Z,75.00
2019-06-08T04:42:39.182Z,75.29
2019-06-08T04:43:38.489Z,75.38
2019-06-08T04:44:38.481Z,75.54
2019-06-08T04:45:38.730Z,76.21
2019-06-08T04:46:38.239Z,76.79
2019-06-08T04:47:38.406Z,76.31
2019-06-08T04:48:38.663Z,76.31
2019-06-08T04:49:38.480Z,76.69
2019-06-08T04:50:38.704Z,76.59
2019-06-08T04:51:38.833Z,76.40
2019-06-08T04:52:39.056Z,76.79
2019-06-08T04:53:38.570Z,76.59
2019-06-08T04:54:38.934Z,76.59
2019-06-08T04:55:38.822Z,76.88
2019-06-08T04:56:38.603Z,76.79
2019-06-08T04:57:39.316Z,77.08
2019-06-08T04:58:39.826Z,76.88
2019-06-08T04:59:39.023Z,76.50
2019-06-08T05:00:39.114Z,76.40
2019-06-08T05:01:38.863Z,76.88
2019-06-08T05:02:39.360Z,76.98
2019-06-08T05:03:39.214Z,76.59
2019-06-08T05:04:38.911Z,76.59
2019-06-08T05:05:39.250Z,76.79
2019-06-08T05:06:39.066Z,76.40
2019-06-08T05:07:39.191Z,76.50
2019-06-08T05:08:39.038Z,76.50
2019-06-08T05:09:39.131Z,75.63
2019-06-08T05:10:39.204Z,75.73
2019-06-08T05:11:39.108Z,75.54
2019-06-08T05:12:39.180Z,74.48
2019-06-08T05:13:39.116Z,74.96
2019-06-08T05:14:39.081Z,75.35
2019-06-08T05:15:39.147Z,74.77
2019-06-08T05:16:39.131Z,74.58
2019-06-08T05:17:39.356Z,74.68
2019-06-08T05:18:39.160Z,74.19
2019-06-08T05:19:39.231Z,74.29
2019-06-08T05:20:41.527Z,74.58
2019-06-08T05:21:39.527Z,74.48
2019-06-08T05:22:39.448Z,73.52
2019-06-08T05:23:39.297Z,72.75
2019-06-08T05:24:39.591Z,73.33
2019-06-08T05:25:39.126Z,73.91
2019-06-08T05:26:39.274Z,72.95
2019-06-08T05:27:39.396Z,72.81
2019-06-08T05:28:39.168Z,72.91
2019-06-08T05:29:39.236Z,72.81
2019-06-08T05:30:39.368Z,73.39
2019-06-08T05:31:39.415Z,73.30
2019-06-08T05:32:39.464Z,73.87
2019-06-08T05:33:39.267Z,73.39
2019-06-08T05:34:39.399Z,73.77
2019-06-08T05:35:39.497Z,73.20
2019-06-08T05:36:39.392Z,73.20
2019-06-08T05:37:39.536Z,73.20
2019-06-08T05:38:39.521Z,73.00
2019-06-08T05:39:39.580Z,73.39
2019-06-08T05:40:39.540Z,73.49
2019-06-08T05:41:39.538Z,73.39
2019-06-08T05:42:42.024Z,72.91
2019-06-08T05:43:39.769Z,72.91
2019-06-08T05:44:39.663Z,73.58
2019-06-08T05:45:39.679Z,73.49
2019-06-08T05:46:39.713Z,72.91
2019-06-08T05:47:39.834Z,73.00
2019-06-08T05:48:39.862Z,73.10
2019-06-08T05:49:39.833Z,72.56
2019-06-08T05:50:55.858Z,73.10
2019-06-08T05:51:39.888Z,73.14
2019-06-08T05:52:39.956Z,72.37
2019-06-08T05:53:39.958Z,72.75
2019-06-08T05:54:39.994Z,72.08
2019-06-08T05:55:40.028Z,71.80
2019-06-08T05:56:40.074Z,72.18
2019-06-08T05:57:40.145Z,71.31
2019-06-08T05:58:40.134Z,71.12
2019-06-08T05:59:40.170Z,70.93
2019-06-08T06:00:40.203Z,71.80
2019-06-08T06:01:40.461Z,71.12
2019-06-08T06:02:40.275Z,70.84
2019-06-08T06:03:40.389Z,70.93
2019-06-08T06:04:40.903Z,70.64
2019-06-08T06:05:40.380Z,70.17
2019-06-08T06:06:40.475Z,70.64
2019-06-08T06:07:40.617Z,70.64
2019-06-08T06:08:40.482Z,70.26
2019-06-08T06:09:41.140Z,70.07
2019-06-08T06:10:40.744Z,70.36
2019-06-08T06:11:40.706Z,70.07
2019-06-08T06:12:40.944Z,70.36
2019-06-08T06:13:40.665Z,69.01
2019-06-08T06:14:40.723Z,68.66
2019-06-08T06:15:40.986Z,67.90
2019-06-08T06:16:40.898Z,67.86
2019-06-08T06:17:40.947Z,68.18
2019-06-08T06:18:41.015Z,67.61
2019-06-08T06:19:41.090Z,67.70
2019-06-08T06:20:41.054Z,68.76
2019-06-08T06:21:41.048Z,68.18
2019-06-08T06:22:42.030Z,67.41
2019-06-08T06:23:41.175Z,68.08
2019-06-08T06:24:41.787Z,68.08
2019-06-08T06:25:41.399Z,67.80
2019-06-08T06:26:41.317Z,67.90
2019-06-08T06:27:41.352Z,67.80
2019-06-08T06:28:41.393Z,67.07
2019-06-08T06:29:41.424Z,66.30
2019-06-08T06:30:41.611Z,66.58
2019-06-08T06:31:41.683Z,66.10
2019-06-08T06:32:41.754Z,65.91
2019-06-08T06:33:41.999Z,66.00
2019-06-08T06:34:41.984Z,65.72
2019-06-08T06:35:41.722Z,65.62
2019-06-08T06:36:41.729Z,65.53
2019-06-08T06:37:41.863Z,64.66
2019-06-08T06:38:41.924Z,63.99
2019-06-08T06:39:41.929Z,63.99
2019-06-08T06:40:41.945Z,64.18
2019-06-08T06:41:41.905Z,63.79
2019-06-08T06:42:42.045Z,63.32
2019-06-08T06:43:42.259Z,62.26
2019-06-08T06:44:42.207Z,63.12
2019-06-08T06:45:41.897Z,62.84
2019-06-08T06:46:41.903Z,62.45
2019-06-08T06:47:42.249Z,62.35
2019-06-08T06:48:42.077Z,63.12
2019-06-08T06:49:42.403Z,61.68
2019-06-08T06:50:42.277Z,61.68
2019-06-08T06:51:42.331Z,61.11
2019-06-08T06:52:42.776Z,60.91
2019-06-08T06:53:42.783Z,61.68
2019-06-08T06:54:42.788Z,61.97
2019-06-08T06:55:42.842Z,61.40
2019-06-08T06:56:43.110Z,60.72
2019-06-08T06:57:43.497Z,60.24
2019-06-08T06:58:43.078Z,60.43
2019-06-08T06:59:43.295Z,61.49
2019-06-08T07:00:43.253Z,60.46
2019-06-08T07:01:43.447Z,61.01
2019-06-08T07:02:43.547Z,61.14
2019-06-08T07:03:42.415Z,61.43
2019-06-08T07:04:43.664Z,59.99
2019-06-08T07:05:43.694Z,59.89
2019-06-08T07:06:43.949Z,59.99
2019-06-08T07:07:42.560Z,58.45
2019-06-08T07:08:42.592Z,58.54
2019-06-08T07:09:42.629Z,58.15
2019-06-08T07:10:42.697Z,58.64
2019-06-08T07:11:42.699Z,58.64
2019-06-08T07:12:42.734Z,57.97
2019-06-08T07:13:42.771Z,58.54
2019-06-08T07:14:42.805Z,57.77
2019-06-08T07:15:42.843Z,57.77
2019-06-08T07:16:42.877Z,57.48
2019-06-08T07:17:42.911Z,57.68
2019-06-08T07:18:42.948Z,58.15
2019-06-08T07:19:42.982Z,58.15
2019-06-08T07:20:43.023Z,57.87
2019-06-08T07:21:43.054Z,58.25
2019-06-08T07:22:43.089Z,57.77
2019-06-08T07:23:43.127Z,57.97
2019-06-08T07:24:43.159Z,58.35
2019-06-08T07:25:43.195Z,57.77
2019-06-08T07:26:43.230Z,58.15
2019-06-08T07:27:43.266Z,58.25
2019-06-08T07:28:43.301Z,59.02
2019-06-08T07:29:43.337Z,59.02
2019-06-08T07:30:43.373Z,58.57
2019-06-08T07:31:43.409Z,58.35
2019-06-08T07:32:43.444Z,58.37
2019-06-08T07:33:43.485Z,56.36
2019-06-08T07:34:43.518Z,56.84
2019-06-08T07:35:43.551Z,57.22
2019-06-08T07:36:43.586Z,57.39
2019-06-08T07:37:43.621Z,57.29
2019-06-08T07:38:43.658Z,57.32
2019-06-08T07:39:43.695Z,56.36
2019-06-08T07:40:43.728Z,56.84
2019-06-08T07:41:43.764Z,55.78
2019-06-08T07:42:43.805Z,55.78
2019-06-08T07:43:43.843Z,56.33
2019-06-08T07:44:43.869Z,56.71
2019-06-08T07:45:43.907Z,56.26
2019-06-08T07:46:43.943Z,56.04
2019-06-08T07:47:43.984Z,55.37
2019-06-08T07:48:44.013Z,55.56
2019-06-08T07:49:44.050Z,56.33
2019-06-08T07:50:44.090Z,56.91
2019-06-08T07:51:57.628Z,57.48
2019-06-08T07:52:44.159Z,56.62
2019-06-08T07:53:44.191Z,56.91
2019-06-08T07:54:44.227Z,57.39
2019-06-08T07:55:45.354Z,57.29
2019-06-08T07:56:44.297Z,57.29
2019-06-08T07:57:44.333Z,57.48
2019-06-08T07:58:44.370Z,56.62
2019-06-08T07:59:44.404Z,57.39
2019-06-08T08:00:44.439Z,57.00
2019-06-08T08:01:44.475Z,57.29
2019-06-08T08:02:44.511Z,57.29
2019-06-08T08:03:44.546Z,57.39
2019-06-08T08:04:44.582Z,57.10
2019-06-08T08:05:44.617Z,58.06
2019-06-08T08:06:44.654Z,57.39
2019-06-08T08:07:44.690Z,57.48
2019-06-08T08:08:44.726Z,57.68
2019-06-08T08:09:44.758Z,57.29
2019-06-08T08:10:44.797Z,57.39
2019-06-08T08:11:44.830Z,56.91
2019-06-08T08:12:44.870Z,57.20
2019-06-08T08:13:44.902Z,57.29
2019-06-08T08:14:44.937Z,57.97
2019-06-08T08:15:44.977Z,58.06
2019-06-08T08:16:45.013Z,57.87
2019-06-08T08:17:45.044Z,56.71
2019-06-08T08:18:45.079Z,56.62
2019-06-08T08:19:45.114Z,56.71
2019-06-08T08:20:45.152Z,56.71
2019-06-08T08:21:45.184Z,57.00
2019-06-08T08:22:45.221Z,56.33
2019-06-08T08:23:45.255Z,56.33
2019-06-08T08:24:48.176Z,56.81
2019-06-08T08:25:47.335Z,56.91
2019-06-08T08:26:48.014Z,57.39
2019-06-08T08:27:45.397Z,56.23
2019-06-08T08:28:45.434Z,55.94
2019-06-08T08:29:47.475Z,55.94
2019-06-08T08:30:45.503Z,56.14
2019-06-08T08:31:47.833Z,56.11
2019-06-08T08:32:47.965Z,56.30
2019-06-08T08:33:45.610Z,56.11
2019-06-08T08:34:47.612Z,56.30
2019-06-08T08:35:48.070Z,56.30
2019-06-08T08:36:48.022Z,56.68
2019-06-08T08:37:47.389Z,56.68
2019-06-08T08:38:47.845Z,56.30
2019-06-08T08:39:47.345Z,56.88
2019-06-08T08:40:48.416Z,57.36
2019-06-08T08:41:45.892Z,57.36
2019-06-08T08:42:48.136Z,56.88
2019-06-08T08:43:48.328Z,56.59
2019-06-08T08:44:45.999Z,56.11
2019-06-08T08:45:47.675Z,56.59
2019-06-08T08:46:48.633Z,57.26
2019-06-08T08:47:48.337Z,57.36
2019-06-08T08:48:48.498Z,57.17
2019-06-08T08:49:47.966Z,57.07
2019-06-08T08:50:48.176Z,56.68
2019-06-08T08:51:47.692Z,56.78
2019-06-08T08:52:47.683Z,57.36
2019-06-08T08:53:48.183Z,57.17
2019-06-08T08:54:47.468Z,56.88
2019-06-08T08:55:48.065Z,57.07
2019-06-08T08:56:50.503Z,56.59
2019-06-08T08:57:48.361Z,56.68
2019-06-08T08:58:47.778Z,56.68
2019-06-08T08:59:50.157Z,56.59
2019-06-08T09:00:48.652Z,55.73
2019-06-08T09:01:48.257Z,55.82
2019-06-08T09:02:48.869Z,55.91
2019-06-08T09:03:48.271Z,55.82
2019-06-08T09:04:47.699Z,55.44
2019-06-08T09:05:48.318Z,55.34
2019-06-08T09:06:48.309Z,55.63
2019-06-08T09:07:48.274Z,55.91
2019-06-08T09:08:48.529Z,55.82
2019-06-08T09:09:48.222Z,55.05
2019-06-08T09:10:48.043Z,55.44
2019-06-08T09:11:48.374Z,55.15
2019-06-08T09:12:48.577Z,55.34
2019-06-08T09:13:48.836Z,55.24
2019-06-08T09:14:47.990Z,55.73
2019-06-08T09:15:47.996Z,56.01
2019-06-08T09:16:48.117Z,55.82
2019-06-08T09:17:48.310Z,55.91
2019-06-08T09:18:47.969Z,56.49
2019-06-08T09:19:48.093Z,56.21
2019-06-08T09:20:47.897Z,56.78
2019-06-08T09:21:48.214Z,55.73
2019-06-08T09:22:56.493Z,55.24
2019-06-08T09:23:48.661Z,54.86
2019-06-08T09:24:48.537Z,54.96
2019-06-08T09:25:48.365Z,54.67
2019-06-08T09:26:47.874Z,54.00
2019-06-08T09:27:48.380Z,53.80
2019-06-08T09:28:47.555Z,54.19
2019-06-08T09:29:48.164Z,54.38
2019-06-08T09:30:48.359Z,54.77
2019-06-08T09:31:49.049Z,55.05
2019-06-08T09:32:47.966Z,54.77
2019-06-08T09:33:55.178Z,53.52
2019-06-08T09:34:48.364Z,53.70
2019-06-08T09:35:48.017Z,54.00
2019-06-08T09:36:48.296Z,53.90
2019-06-08T09:37:48.606Z,53.70
2019-06-08T09:38:48.021Z,53.52
2019-06-08T09:39:48.354Z,54.09
2019-06-08T09:40:48.881Z,54.09
2019-06-08T09:41:48.115Z,53.80
2019-06-08T09:42:48.045Z,53.70
2019-06-08T09:43:48.736Z,54.09
2019-06-08T09:44:48.370Z,53.80
2019-06-08T09:45:48.434Z,54.31
2019-06-08T09:46:48.312Z,53.92
2019-06-08T09:47:48.221Z,53.54
2019-06-08T09:48:48.716Z,53.92
2019-06-08T09:49:48.294Z,53.90
2019-06-08T09:50:48.717Z,54.22
2019-06-08T09:51:48.764Z,54.22
2019-06-08T09:52:48.399Z,54.02
2019-06-08T09:53:48.432Z,54.89
2019-06-08T09:54:48.468Z,54.69
2019-06-08T09:55:48.501Z,54.31
2019-06-08T09:56:48.537Z,53.74
2019-06-08T09:57:48.699Z,53.06
2019-06-08T09:58:51.366Z,53.64
2019-06-08T09:59:48.644Z,53.06
2019-06-08T10:00:48.998Z,53.54
2019-06-08T10:01:48.722Z,52.97
2019-06-08T10:02:48.750Z,53.61
2019-06-08T10:03:48.785Z,54.12
2019-06-08T10:04:48.847Z,54.86
2019-06-08T10:05:48.868Z,54.28
2019-06-08T10:06:48.901Z,54.00
2019-06-08T10:07:48.934Z,54.09
2019-06-08T10:08:48.979Z,53.70
2019-06-08T10:09:50.191Z,54.12
2019-06-08T10:10:49.033Z,54.09
2019-06-08T10:11:49.068Z,54.00
2019-06-08T10:12:49.105Z,54.00
2019-06-08T10:13:49.181Z,54.77
2019-06-08T10:14:49.261Z,55.15
2019-06-08T10:15:51.554Z,53.80
2019-06-08T10:16:49.252Z,53.83
2019-06-08T10:17:49.279Z,53.92
2019-06-08T10:18:51.572Z,54.67
2019-06-08T10:19:49.350Z,54.22
2019-06-08T10:20:49.386Z,55.27
2019-06-08T10:21:49.426Z,54.89
2019-06-08T10:22:50.476Z,54.89
2019-06-08T10:23:49.490Z,55.18
2019-06-08T10:24:49.526Z,54.99
2019-06-08T10:25:49.562Z,54.79
2019-06-08T10:26:49.607Z,54.41
2019-06-08T10:27:49.634Z,54.79
2019-06-08T10:28:51.321Z,54.69
2019-06-08T10:29:49.704Z,55.05
2019-06-08T10:30:49.750Z,54.96
2019-06-08T10:31:49.785Z,54.89
2019-06-08T10:32:50.760Z,54.69
2019-06-08T10:33:49.845Z,53.83
2019-06-08T10:34:49.880Z,54.69
2019-06-08T10:35:49.915Z,54.67
2019-06-08T10:36:49.959Z,54.69
2019-06-08T10:37:50.858Z,54.00
2019-06-08T10:38:50.022Z,54.19
2019-06-08T10:39:50.058Z,54.00
2019-06-08T10:40:50.092Z,54.00
2019-06-08T10:41:51.659Z,54.19
2019-06-08T10:42:50.163Z,54.38
2019-06-08T10:43:50.198Z,53.90
2019-06-08T10:44:50.238Z,53.61
2019-06-08T10:45:51.147Z,53.80
2019-06-08T10:46:50.385Z,53.80
2019-06-08T10:47:50.338Z,53.52
2019-06-08T10:48:50.378Z,53.70
2019-06-08T10:49:50.410Z,53.70
2019-06-08T10:50:50.454Z,53.32
2019-06-08T10:51:50.497Z,53.23
2019-06-08T10:52:50.523Z,53.32
2019-06-08T10:53:53.336Z,53.32
2019-06-08T10:54:50.587Z,53.16
2019-06-08T10:55:50.641Z,53.83
2019-06-08T10:56:50.658Z,53.06
2019-06-08T10:57:50.693Z,52.39
2019-06-08T10:58:50.729Z,52.00
2019-06-08T10:59:50.761Z,52.68
2019-06-08T11:00:50.801Z,52.48
2019-06-08T11:01:50.833Z,52.87
2019-06-08T11:02:50.885Z,51.91
2019-06-08T11:03:50.909Z,52.10
2019-06-08T11:04:50.940Z,51.64
2019-06-08T11:05:51.340Z,51.93
2019-06-08T11:06:51.075Z,52.42
2019-06-08T11:07:51.060Z,52.61
2019-06-08T11:08:51.108Z,52.22
2019-06-08T11:09:51.116Z,50.97
2019-06-08T11:10:51.161Z,50.87
2019-06-08T11:11:51.203Z,50.40
2019-06-08T11:12:51.223Z,50.68
2019-06-08T11:13:51.258Z,49.43
2019-06-08T11:14:51.297Z,48.97
2019-06-08T11:15:51.329Z,47.80
2019-06-08T11:16:51.369Z,47.92
2019-06-08T11:17:51.406Z,46.86
2019-06-08T11:18:51.436Z,47.24
2019-06-08T11:19:51.471Z,47.63
2019-06-08T11:20:51.506Z,46.77
2019-06-08T11:21:51.543Z,46.77
2019-06-08T11:22:51.578Z,47.15
2019-06-08T11:24:06.106Z,47.17
2019-06-08T11:24:51.647Z,46.50
2019-06-08T11:25:51.688Z,46.21
2019-06-08T11:26:51.727Z,45.15
2019-06-08T11:27:51.754Z,44.38
2019-06-08T11:28:51.800Z,44.89
2019-06-08T11:29:51.827Z,44.02
2019-06-08T11:30:51.881Z,45.07
2019-06-08T11:31:51.905Z,42.76
2019-06-08T11:32:51.935Z,42.47
2019-06-08T11:33:51.970Z,42.09
2019-06-08T11:34:52.009Z,41.80
2019-06-08T11:35:52.042Z,41.89
2019-06-08T11:36:52.109Z,41.78
2019-06-08T11:37:52.114Z,42.38
2019-06-08T11:38:52.151Z,42.57
2019-06-08T11:39:52.189Z,42.47
2019-06-08T11:40:52.222Z,41.99
2019-06-08T11:41:52.257Z,41.30
2019-06-08T11:42:52.294Z,41.49
2019-06-08T11:43:52.330Z,41.68
2019-06-08T11:44:52.366Z,42.36
2019-06-08T11:45:52.403Z,42.16
2019-06-08T11:46:52.453Z,42.57
2019-06-08T11:47:52.473Z,42.57
2019-06-08T11:48:52.509Z,40.64
2019-06-08T11:49:52.547Z,40.16
2019-06-08T11:50:52.590Z,40.36
2019-06-08T11:51:52.617Z,40.64
2019-06-08T11:52:52.653Z,40.26
2019-06-08T11:53:53.010Z,39.20
2019-06-08T11:54:52.725Z,38.64
2019-06-08T11:55:52.761Z,38.35
2019-06-08T11:56:52.799Z,37.96
2019-06-08T11:57:52.834Z,37.68
2019-06-08T11:58:52.872Z,37.87
2019-06-08T11:59:52.905Z,37.68
2019-06-08T12:00:52.942Z,37.58
2019-06-08T12:01:52.977Z,37.58
2019-06-08T12:02:53.016Z,38.35
2019-06-08T12:03:53.050Z,37.48
2019-06-08T12:04:53.091Z,37.58
2019-06-08T12:05:53.125Z,37.68
2019-06-08T12:06:53.159Z,37.96
2019-06-08T12:07:53.196Z,37.39
2019-06-08T12:08:53.232Z,38.06
2019-06-08T12:09:53.276Z,37.29
2019-06-08T12:10:53.309Z,37.01
2019-06-08T12:11:53.340Z,38.26
2019-06-08T12:12:53.378Z,38.16
2019-06-08T12:13:53.417Z,38.16
2019-06-08T12:14:53.450Z,38.16
2019-06-08T12:15:53.489Z,38.83
2019-06-08T12:16:53.523Z,38.35
2019-06-08T12:17:53.559Z,38.16
2019-06-08T12:18:53.599Z,37.77
2019-06-08T12:19:53.637Z,37.87
2019-06-08T12:20:53.670Z,37.77
2019-06-08T12:21:53.704Z,38.06
2019-06-08T12:22:53.746Z,37.77
2019-06-08T12:23:53.778Z,37.19
2019-06-08T12:24:53.814Z,37.01
2019-06-08T12:25:53.852Z,35.75
2019-06-08T12:27:00.296Z,35.56
2019-06-08T12:27:53.926Z,35.46
2019-06-08T12:28:53.960Z,35.85
2019-06-08T12:29:53.998Z,36.23
2019-06-08T12:30:54.033Z,36.43
2019-06-08T12:31:54.069Z,37.01
2019-06-08T12:32:54.104Z,37.58
2019-06-08T12:33:54.143Z,36.44
2019-06-08T12:34:54.178Z,36.73
2019-06-08T12:35:54.215Z,37.21
2019-06-08T12:36:54.250Z,37.60
2019-06-08T12:37:54.288Z,37.98
2019-06-08T12:38:54.333Z,38.18
2019-06-08T12:39:54.360Z,38.46
2019-06-08T12:40:54.399Z,38.37
2019-06-08T12:41:54.435Z,38.10
2019-06-08T12:42:54.471Z,37.04
2019-06-08T12:43:54.508Z,35.69
2019-06-08T12:44:54.543Z,34.92
2019-06-08T12:45:54.583Z,35.50
2019-06-08T12:46:54.617Z,35.88
2019-06-08T12:47:54.657Z,35.78
2019-06-08T12:48:54.690Z,35.78
2019-06-08T12:49:54.728Z,35.50
2019-06-08T12:50:54.766Z,35.50
2019-06-08T12:51:54.802Z,35.78
2019-06-08T12:52:54.840Z,35.59